sensor_id;sensor_type;location;lat;lon;timestamp;temperature;humidity
76936;DHT22;65881;52.438;16.744;2022-12-29T00:00:51;5.70;85.00
76936;DHT22;65881;52.438;16.744;2022-12-29T00:03:21;5.70;85.20
76936;DHT22;65881;52.438;16.744;2022-12-29T00:05:58;5.70;84.80
76936;DHT22;65881;52.438;16.744;2022-12-29T00:08:25;5.70;84.80
76936;DHT22;65881;52.438;16.744;2022-12-29T00:11:10;5.70;84.70
76936;DHT22;65881;52.438;16.744;2022-12-29T00:13:36;5.70;84.60
76936;DHT22;65881;52.438;16.744;2022-12-29T00:16:21;5.60;84.80
76936;DHT22;65881;52.438;16.744;2022-12-29T00:18:47;5.60;85.20
76936;DHT22;65881;52.438;16.744;2022-12-29T00:21:18;5.50;85.70
76936;DHT22;65881;52.438;16.744;2022-12-29T00:24:03;5.50;85.80
76936;DHT22;65881;52.438;16.744;2022-12-29T00:27:10;5.50;86.30
76936;DHT22;65881;52.438;16.744;2022-12-29T00:29:55;5.40;86.30
76936;DHT22;65881;52.438;16.744;2022-12-29T00:32:43;5.30;86.10
76936;DHT22;65881;52.438;16.744;2022-12-29T00:35:56;5.30;86.40
76936;DHT22;65881;52.438;16.744;2022-12-29T00:38:23;5.30;86.30
76936;DHT22;65881;52.438;16.744;2022-12-29T00:41:07;5.30;86.20
76936;DHT22;65881;52.438;16.744;2022-12-29T00:43:54;5.30;86.00
76936;DHT22;65881;52.438;16.744;2022-12-29T00:46:37;5.30;86.10
76936;DHT22;65881;52.438;16.744;2022-12-29T00:49:05;5.30;86.10
76936;DHT22;65881;52.438;16.744;2022-12-29T00:51:49;5.30;85.90
76936;DHT22;65881;52.438;16.744;2022-12-29T00:54:19;5.30;85.60
76936;DHT22;65881;52.438;16.744;2022-12-29T00:56:54;5.30;85.70
76936;DHT22;65881;52.438;16.744;2022-12-29T00:59:21;5.30;85.50
76936;DHT22;65881;52.438;16.744;2022-12-29T01:01:48;5.30;85.40
76936;DHT22;65881;52.438;16.744;2022-12-29T01:04:14;5.30;85.30
76936;DHT22;65881;52.438;16.744;2022-12-29T01:06:40;5.30;85.50
76936;DHT22;65881;52.438;16.744;2022-12-29T01:09:08;5.40;85.00
76936;DHT22;65881;52.438;16.744;2022-12-29T01:11:53;5.40;85.20
76936;DHT22;65881;52.438;16.744;2022-12-29T01:14:20;5.30;85.20
76936;DHT22;65881;52.438;16.744;2022-12-29T01:16:46;5.40;85.10
76936;DHT22;65881;52.438;16.744;2022-12-29T01:19:16;5.40;84.80
76936;DHT22;65881;52.438;16.744;2022-12-29T01:21:46;5.50;84.40
76936;DHT22;65881;52.438;16.744;2022-12-29T01:24:21;5.50;84.40
76936;DHT22;65881;52.438;16.744;2022-12-29T01:26:48;5.50;84.10
76936;DHT22;65881;52.438;16.744;2022-12-29T01:29:14;5.60;83.50
76936;DHT22;65881;52.438;16.744;2022-12-29T01:31:41;5.60;83.40
76936;DHT22;65881;52.438;16.744;2022-12-29T01:34:07;5.70;83.00
76936;DHT22;65881;52.438;16.744;2022-12-29T01:36:33;5.70;83.00
76936;DHT22;65881;52.438;16.744;2022-12-29T01:38:59;5.70;82.80
76936;DHT22;65881;52.438;16.744;2022-12-29T01:41:25;5.70;82.50
76936;DHT22;65881;52.438;16.744;2022-12-29T01:43:58;5.80;82.30
76936;DHT22;65881;52.438;16.744;2022-12-29T01:46:40;5.90;81.50
76936;DHT22;65881;52.438;16.744;2022-12-29T01:49:23;5.90;81.40
76936;DHT22;65881;52.438;16.744;2022-12-29T01:51:57;6.00;81.00
76936;DHT22;65881;52.438;16.744;2022-12-29T01:54:25;6.10;80.00
76936;DHT22;65881;52.438;16.744;2022-12-29T01:56:55;6.20;79.70
76936;DHT22;65881;52.438;16.744;2022-12-29T01:59:24;6.20;79.40
76936;DHT22;65881;52.438;16.744;2022-12-29T02:01:51;6.10;79.80
76936;DHT22;65881;52.438;16.744;2022-12-29T02:04:17;6.20;79.50
76936;DHT22;65881;52.438;16.744;2022-12-29T02:06:58;6.20;79.50
76936;DHT22;65881;52.438;16.744;2022-12-29T02:09:26;6.10;80.10
76936;DHT22;65881;52.438;16.744;2022-12-29T02:11:52;6.10;80.60
76936;DHT22;65881;52.438;16.744;2022-12-29T02:14:19;6.00;81.00
76936;DHT22;65881;52.438;16.744;2022-12-29T02:22:41;5.90;82.50
76936;DHT22;65881;52.438;16.744;2022-12-29T02:28:47;5.90;83.70
76936;DHT22;65881;52.438;16.744;2022-12-29T02:39:44;5.70;85.10
76936;DHT22;65881;52.438;16.744;2022-12-29T02:45:26;5.80;85.60
76936;DHT22;65881;52.438;16.744;2022-12-29T02:50:51;5.70;86.10
76936;DHT22;65881;52.438;16.744;2022-12-29T02:53:19;5.70;86.60
76936;DHT22;65881;52.438;16.744;2022-12-29T02:56:09;5.70;87.00
76936;DHT22;65881;52.438;16.744;2022-12-29T02:58:34;5.70;86.40
76936;DHT22;65881;52.438;16.744;2022-12-29T03:01:11;5.60;86.80
76936;DHT22;65881;52.438;16.744;2022-12-29T03:04:09;5.60;87.10
76936;DHT22;65881;52.438;16.744;2022-12-29T03:10:11;5.60;87.20
76936;DHT22;65881;52.438;16.744;2022-12-29T03:12:56;5.60;86.90
76936;DHT22;65881;52.438;16.744;2022-12-29T03:21:32;5.60;87.30
76936;DHT22;65881;52.438;16.744;2022-12-29T03:24:41;5.60;87.40
76936;DHT22;65881;52.438;16.744;2022-12-29T03:27:13;5.60;87.70
76936;DHT22;65881;52.438;16.744;2022-12-29T03:29:46;5.50;87.90
76936;DHT22;65881;52.438;16.744;2022-12-29T03:32:13;5.60;88.00
76936;DHT22;65881;52.438;16.744;2022-12-29T03:34:48;5.50;88.60
76936;DHT22;65881;52.438;16.744;2022-12-29T03:37:18;5.50;88.50
76936;DHT22;65881;52.438;16.744;2022-12-29T03:39:46;5.50;88.30
76936;DHT22;65881;52.438;16.744;2022-12-29T03:42:21;5.50;88.90
76936;DHT22;65881;52.438;16.744;2022-12-29T03:44:56;5.50;89.10
76936;DHT22;65881;52.438;16.744;2022-12-29T03:47:22;5.50;89.10
76936;DHT22;65881;52.438;16.744;2022-12-29T03:49:49;5.50;89.00
76936;DHT22;65881;52.438;16.744;2022-12-29T03:52:35;5.50;88.90
76936;DHT22;65881;52.438;16.744;2022-12-29T03:55:01;5.50;88.40
76936;DHT22;65881;52.438;16.744;2022-12-29T03:57:27;5.50;88.10
76936;DHT22;65881;52.438;16.744;2022-12-29T03:59:52;5.60;87.80
76936;DHT22;65881;52.438;16.744;2022-12-29T04:02:18;5.50;88.00
76936;DHT22;65881;52.438;16.744;2022-12-29T04:04:44;5.50;88.10
76936;DHT22;65881;52.438;16.744;2022-12-29T04:07:10;5.60;87.10
76936;DHT22;65881;52.438;16.744;2022-12-29T04:09:36;5.60;86.40
76936;DHT22;65881;52.438;16.744;2022-12-29T04:12:22;5.60;86.70
76936;DHT22;65881;52.438;16.744;2022-12-29T04:14:48;5.60;86.30
76936;DHT22;65881;52.438;16.744;2022-12-29T04:17:13;5.60;86.60
76936;DHT22;65881;52.438;16.744;2022-12-29T04:19:41;5.60;86.30
76936;DHT22;65881;52.438;16.744;2022-12-29T04:22:07;5.60;86.30
76936;DHT22;65881;52.438;16.744;2022-12-29T04:24:32;5.60;86.40
76936;DHT22;65881;52.438;16.744;2022-12-29T04:26:58;5.60;86.50
76936;DHT22;65881;52.438;16.744;2022-12-29T04:29:24;5.60;86.20
76936;DHT22;65881;52.438;16.744;2022-12-29T04:31:49;5.60;86.00
76936;DHT22;65881;52.438;16.744;2022-12-29T04:34:31;5.60;85.90
76936;DHT22;65881;52.438;16.744;2022-12-29T04:37:09;5.60;85.70
76936;DHT22;65881;52.438;16.744;2022-12-29T04:39:54;5.60;85.80
76936;DHT22;65881;52.438;16.744;2022-12-29T04:42:19;5.60;85.50
76936;DHT22;65881;52.438;16.744;2022-12-29T04:44:45;5.60;85.70
76936;DHT22;65881;52.438;16.744;2022-12-29T04:47:12;5.60;85.50
76936;DHT22;65881;52.438;16.744;2022-12-29T04:49:38;5.60;85.50
76936;DHT22;65881;52.438;16.744;2022-12-29T04:52:03;5.60;85.20
76936;DHT22;65881;52.438;16.744;2022-12-29T04:54:32;5.60;85.00
76936;DHT22;65881;52.438;16.744;2022-12-29T04:56:59;5.70;84.90
76936;DHT22;65881;52.438;16.744;2022-12-29T04:59:26;5.60;84.70
76936;DHT22;65881;52.438;16.744;2022-12-29T05:01:51;5.70;84.60
76936;DHT22;65881;52.438;16.744;2022-12-29T05:04:17;5.60;84.70
76936;DHT22;65881;52.438;16.744;2022-12-29T05:06:43;5.70;84.40
76936;DHT22;65881;52.438;16.744;2022-12-29T05:09:09;5.60;84.50
76936;DHT22;65881;52.438;16.744;2022-12-29T05:11:42;5.60;84.50
76936;DHT22;65881;52.438;16.744;2022-12-29T05:14:09;5.50;84.70
76936;DHT22;65881;52.438;16.744;2022-12-29T05:16:43;5.50;84.60
76936;DHT22;65881;52.438;16.744;2022-12-29T05:19:16;5.50;84.70
76936;DHT22;65881;52.438;16.744;2022-12-29T05:22:03;5.50;84.40
76936;DHT22;65881;52.438;16.744;2022-12-29T05:24:35;5.50;84.50
76936;DHT22;65881;52.438;16.744;2022-12-29T05:27:00;5.50;84.40
76936;DHT22;65881;52.438;16.744;2022-12-29T05:29:26;5.50;84.40
76936;DHT22;65881;52.438;16.744;2022-12-29T05:31:52;5.50;84.30
76936;DHT22;65881;52.438;16.744;2022-12-29T05:34:21;5.50;84.00
76936;DHT22;65881;52.438;16.744;2022-12-29T05:36:46;5.50;84.30
76936;DHT22;65881;52.438;16.744;2022-12-29T05:39:12;5.50;84.10
76936;DHT22;65881;52.438;16.744;2022-12-29T05:41:45;5.60;83.70
76936;DHT22;65881;52.438;16.744;2022-12-29T05:44:11;5.60;84.00
76936;DHT22;65881;52.438;16.744;2022-12-29T05:46:37;5.60;83.70
76936;DHT22;65881;52.438;16.744;2022-12-29T05:49:08;5.60;83.90
76936;DHT22;65881;52.438;16.744;2022-12-29T05:51:35;5.60;84.00
76936;DHT22;65881;52.438;16.744;2022-12-29T05:54:00;5.60;84.00
76936;DHT22;65881;52.438;16.744;2022-12-29T05:56:26;5.60;83.90
76936;DHT22;65881;52.438;16.744;2022-12-29T05:58:55;5.60;84.00
76936;DHT22;65881;52.438;16.744;2022-12-29T06:01:37;5.70;83.70
76936;DHT22;65881;52.438;16.744;2022-12-29T06:04:03;5.70;83.60
76936;DHT22;65881;52.438;16.744;2022-12-29T06:06:29;5.80;83.40
76936;DHT22;65881;52.438;16.744;2022-12-29T06:09:01;5.90;83.00
76936;DHT22;65881;52.438;16.744;2022-12-29T06:11:34;5.90;83.00
76936;DHT22;65881;52.438;16.744;2022-12-29T06:14:11;6.00;82.60
76936;DHT22;65881;52.438;16.744;2022-12-29T06:16:40;6.00;82.90
76936;DHT22;65881;52.438;16.744;2022-12-29T06:19:11;6.00;82.80
76936;DHT22;65881;52.438;16.744;2022-12-29T06:21:45;6.00;82.60
76936;DHT22;65881;52.438;16.744;2022-12-29T06:24:15;6.00;82.70
76936;DHT22;65881;52.438;16.744;2022-12-29T06:26:46;6.00;82.50
76936;DHT22;65881;52.438;16.744;2022-12-29T06:29:18;6.00;82.50
76936;DHT22;65881;52.438;16.744;2022-12-29T06:31:45;6.10;82.60
76936;DHT22;65881;52.438;16.744;2022-12-29T06:34:13;6.10;82.50
76936;DHT22;65881;52.438;16.744;2022-12-29T06:36:41;6.10;82.30
76936;DHT22;65881;52.438;16.744;2022-12-29T06:39:10;6.20;82.40
76936;DHT22;65881;52.438;16.744;2022-12-29T06:41:37;6.20;82.40
76936;DHT22;65881;52.438;16.744;2022-12-29T06:44:03;6.20;82.40
76936;DHT22;65881;52.438;16.744;2022-12-29T06:46:31;6.20;82.10
76936;DHT22;65881;52.438;16.744;2022-12-29T06:48:59;6.20;82.10
76936;DHT22;65881;52.438;16.744;2022-12-29T06:51:24;6.20;82.20
76936;DHT22;65881;52.438;16.744;2022-12-29T06:53:53;6.30;82.30
76936;DHT22;65881;52.438;16.744;2022-12-29T06:56:19;6.30;82.40
76936;DHT22;65881;52.438;16.744;2022-12-29T06:59:07;6.30;82.20
76936;DHT22;65881;52.438;16.744;2022-12-29T07:01:36;6.30;82.20
76936;DHT22;65881;52.438;16.744;2022-12-29T07:04:04;6.30;82.00
76936;DHT22;65881;52.438;16.744;2022-12-29T07:06:33;6.40;81.90
76936;DHT22;65881;52.438;16.744;2022-12-29T07:08:59;6.40;82.10
76936;DHT22;65881;52.438;16.744;2022-12-29T07:11:25;6.40;81.80
76936;DHT22;65881;52.438;16.744;2022-12-29T07:13:51;6.50;81.90
76936;DHT22;65881;52.438;16.744;2022-12-29T07:16:20;6.50;81.70
76936;DHT22;65881;52.438;16.744;2022-12-29T07:18:48;6.50;81.80
76936;DHT22;65881;52.438;16.744;2022-12-29T07:21:15;6.50;81.70
76936;DHT22;65881;52.438;16.744;2022-12-29T07:23:45;6.50;81.40
76936;DHT22;65881;52.438;16.744;2022-12-29T07:26:15;6.50;81.70
76936;DHT22;65881;52.438;16.744;2022-12-29T07:28:52;6.50;81.90
76936;DHT22;65881;52.438;16.744;2022-12-29T07:31:22;6.60;81.40
76936;DHT22;65881;52.438;16.744;2022-12-29T07:33:56;6.60;81.30
76936;DHT22;65881;52.438;16.744;2022-12-29T07:36:26;6.70;80.80
76936;DHT22;65881;52.438;16.744;2022-12-29T07:38:52;6.70;81.00
76936;DHT22;65881;52.438;16.744;2022-12-29T07:41:18;6.70;81.00
76936;DHT22;65881;52.438;16.744;2022-12-29T07:43:52;6.70;80.70
76936;DHT22;65881;52.438;16.744;2022-12-29T07:46:21;6.70;80.80
76936;DHT22;65881;52.438;16.744;2022-12-29T07:48:47;6.80;80.70
76936;DHT22;65881;52.438;16.744;2022-12-29T07:51:27;6.80;80.40
76936;DHT22;65881;52.438;16.744;2022-12-29T07:54:08;6.80;80.40
76936;DHT22;65881;52.438;16.744;2022-12-29T07:56:35;6.90;80.00
76936;DHT22;65881;52.438;16.744;2022-12-29T07:59:01;6.90;79.80
76936;DHT22;65881;52.438;16.744;2022-12-29T08:01:37;6.90;79.80
76936;DHT22;65881;52.438;16.744;2022-12-29T08:04:03;6.90;79.80
76936;DHT22;65881;52.438;16.744;2022-12-29T08:06:32;6.90;80.00
76936;DHT22;65881;52.438;16.744;2022-12-29T08:08:59;7.00;79.80
76936;DHT22;65881;52.438;16.744;2022-12-29T08:11:26;7.00;79.40
76936;DHT22;65881;52.438;16.744;2022-12-29T08:13:52;7.00;79.30
76936;DHT22;65881;52.438;16.744;2022-12-29T08:16:20;7.00;79.20
76936;DHT22;65881;52.438;16.744;2022-12-29T08:18:46;7.00;79.30
76936;DHT22;65881;52.438;16.744;2022-12-29T08:21:12;7.20;78.80
76936;DHT22;65881;52.438;16.744;2022-12-29T08:23:37;7.20;79.00
76936;DHT22;65881;52.438;16.744;2022-12-29T08:26:06;7.20;78.70
76936;DHT22;65881;52.438;16.744;2022-12-29T08:28:33;7.30;78.60
76936;DHT22;65881;52.438;16.744;2022-12-29T08:31:00;7.40;78.00
76936;DHT22;65881;52.438;16.744;2022-12-29T08:33:30;7.30;78.30
76936;DHT22;65881;52.438;16.744;2022-12-29T08:36:05;7.40;77.80
76936;DHT22;65881;52.438;16.744;2022-12-29T08:38:30;7.50;77.60
76936;DHT22;65881;52.438;16.744;2022-12-29T08:40:58;7.50;77.30
76936;DHT22;65881;52.438;16.744;2022-12-29T08:43:28;7.50;77.30
76936;DHT22;65881;52.438;16.744;2022-12-29T08:45:53;7.60;76.90
76936;DHT22;65881;52.438;16.744;2022-12-29T08:48:19;7.50;77.00
76936;DHT22;65881;52.438;16.744;2022-12-29T08:50:50;7.60;77.00
76936;DHT22;65881;52.438;16.744;2022-12-29T08:53:17;7.60;76.60
76936;DHT22;65881;52.438;16.744;2022-12-29T08:55:45;7.60;77.30
76936;DHT22;65881;52.438;16.744;2022-12-29T08:58:12;7.70;77.20
76936;DHT22;65881;52.438;16.744;2022-12-29T09:00:41;7.80;77.00
76936;DHT22;65881;52.438;16.744;2022-12-29T09:03:07;7.80;77.10
76936;DHT22;65881;52.438;16.744;2022-12-29T09:05:38;7.80;76.70
76936;DHT22;65881;52.438;16.744;2022-12-29T09:08:04;7.80;77.10
76936;DHT22;65881;52.438;16.744;2022-12-29T09:10:30;7.90;77.30
76936;DHT22;65881;52.438;16.744;2022-12-29T09:12:56;8.00;77.70
76936;DHT22;65881;52.438;16.744;2022-12-29T09:15:22;8.00;77.10
76936;DHT22;65881;52.438;16.744;2022-12-29T09:17:48;8.10;76.50
76936;DHT22;65881;52.438;16.744;2022-12-29T09:20:19;8.20;76.20
76936;DHT22;65881;52.438;16.744;2022-12-29T09:22:45;8.20;76.50
76936;DHT22;65881;52.438;16.744;2022-12-29T09:25:13;8.20;76.30
76936;DHT22;65881;52.438;16.744;2022-12-29T09:27:43;8.30;76.20
76936;DHT22;65881;52.438;16.744;2022-12-29T09:30:11;8.30;76.10
76936;DHT22;65881;52.438;16.744;2022-12-29T09:32:37;8.40;75.30
76936;DHT22;65881;52.438;16.744;2022-12-29T09:35:07;8.30;75.80
76936;DHT22;65881;52.438;16.744;2022-12-29T09:37:33;8.30;76.50
76936;DHT22;65881;52.438;16.744;2022-12-29T09:39:58;8.40;76.50
76936;DHT22;65881;52.438;16.744;2022-12-29T09:42:59;8.40;76.50
76936;DHT22;65881;52.438;16.744;2022-12-29T09:45:29;8.40;76.40
76936;DHT22;65881;52.438;16.744;2022-12-29T09:47:55;8.50;75.90
76936;DHT22;65881;52.438;16.744;2022-12-29T09:53:01;8.80;74.80
76936;DHT22;65881;52.438;16.744;2022-12-29T09:55:35;8.80;75.00
76936;DHT22;65881;52.438;16.744;2022-12-29T10:03:20;9.00;74.10
76936;DHT22;65881;52.438;16.744;2022-12-29T10:06:08;9.10;74.20
76936;DHT22;65881;52.438;16.744;2022-12-29T10:09:23;9.20;73.90
76936;DHT22;65881;52.438;16.744;2022-12-29T10:17:53;9.40;72.90
76936;DHT22;65881;52.438;16.744;2022-12-29T10:20:58;9.40;72.40
76936;DHT22;65881;52.438;16.744;2022-12-29T10:23:28;9.20;72.20
76936;DHT22;65881;52.438;16.744;2022-12-29T10:25:57;9.20;72.30
76936;DHT22;65881;52.438;16.744;2022-12-29T10:28:45;9.10;73.30
76936;DHT22;65881;52.438;16.744;2022-12-29T10:31:40;9.00;73.60
76936;DHT22;65881;52.438;16.744;2022-12-29T10:34:31;9.20;73.90
76936;DHT22;65881;52.438;16.744;2022-12-29T10:39:52;9.40;73.20
76936;DHT22;65881;52.438;16.744;2022-12-29T10:42:33;9.40;73.50
76936;DHT22;65881;52.438;16.744;2022-12-29T10:45:00;9.50;73.30
76936;DHT22;65881;52.438;16.744;2022-12-29T10:47:29;9.60;72.90
76936;DHT22;65881;52.438;16.744;2022-12-29T10:49:57;9.60;72.90
76936;DHT22;65881;52.438;16.744;2022-12-29T10:52:25;9.80;72.40
76936;DHT22;65881;52.438;16.744;2022-12-29T10:54:56;10.00;72.00
76936;DHT22;65881;52.438;16.744;2022-12-29T10:57:43;10.00;70.50
76936;DHT22;65881;52.438;16.744;2022-12-29T11:00:15;9.80;71.40
76936;DHT22;65881;52.438;16.744;2022-12-29T11:08:30;10.20;71.20
76936;DHT22;65881;52.438;16.744;2022-12-29T11:11:08;10.30;70.70
76936;DHT22;65881;52.438;16.744;2022-12-29T11:13:54;10.30;71.10
76936;DHT22;65881;52.438;16.744;2022-12-29T11:16:33;10.40;70.70
76936;DHT22;65881;52.438;16.744;2022-12-29T11:19:00;10.40;70.60
76936;DHT22;65881;52.438;16.744;2022-12-29T11:21:39;10.50;69.40
76936;DHT22;65881;52.438;16.744;2022-12-29T11:24:22;10.30;69.70
76936;DHT22;65881;52.438;16.744;2022-12-29T11:26:52;10.30;70.10
76936;DHT22;65881;52.438;16.744;2022-12-29T11:29:39;10.40;71.00
76936;DHT22;65881;52.438;16.744;2022-12-29T11:32:24;10.50;70.40
76936;DHT22;65881;52.438;16.744;2022-12-29T11:34:52;10.70;69.20
76936;DHT22;65881;52.438;16.744;2022-12-29T11:37:22;10.80;69.50
76936;DHT22;65881;52.438;16.744;2022-12-29T11:42:38;10.80;69.10
76936;DHT22;65881;52.438;16.744;2022-12-29T11:45:14;10.70;68.10
76936;DHT22;65881;52.438;16.744;2022-12-29T11:47:44;10.70;69.00
76936;DHT22;65881;52.438;16.744;2022-12-29T11:50:18;10.60;69.90
76936;DHT22;65881;52.438;16.744;2022-12-29T11:52:48;10.60;70.00
76936;DHT22;65881;52.438;16.744;2022-12-29T11:55:20;10.50;69.10
76936;DHT22;65881;52.438;16.744;2022-12-29T11:57:48;10.50;69.60
76936;DHT22;65881;52.438;16.744;2022-12-29T12:00:20;10.40;69.70
76936;DHT22;65881;52.438;16.744;2022-12-29T12:02:54;10.40;70.00
76936;DHT22;65881;52.438;16.744;2022-12-29T12:05:33;10.40;70.30
76936;DHT22;65881;52.438;16.744;2022-12-29T12:08:33;10.40;70.10
76936;DHT22;65881;52.438;16.744;2022-12-29T12:14:19;10.40;70.10
76936;DHT22;65881;52.438;16.744;2022-12-29T12:16:52;10.50;70.30
76936;DHT22;65881;52.438;16.744;2022-12-29T12:19:33;10.50;70.00
76936;DHT22;65881;52.438;16.744;2022-12-29T12:27:38;10.50;70.00
76936;DHT22;65881;52.438;16.744;2022-12-29T12:33:07;10.60;69.30
76936;DHT22;65881;52.438;16.744;2022-12-29T12:36:18;10.70;69.20
76936;DHT22;65881;52.438;16.744;2022-12-29T12:47:15;10.80;69.00
76936;DHT22;65881;52.438;16.744;2022-12-29T13:00:15;10.80;68.30
76936;DHT22;65881;52.438;16.744;2022-12-29T13:03:12;10.70;68.40
76936;DHT22;65881;52.438;16.744;2022-12-29T13:08:31;10.70;68.10
76936;DHT22;65881;52.438;16.744;2022-12-29T13:11:43;10.70;68.40
76936;DHT22;65881;52.438;16.744;2022-12-29T13:17:45;10.70;68.50
76936;DHT22;65881;52.438;16.744;2022-12-29T13:20:37;10.60;68.40
76936;DHT22;65881;52.438;16.744;2022-12-29T13:25:42;10.50;68.90
76936;DHT22;65881;52.438;16.744;2022-12-29T13:28:37;10.50;68.40
76936;DHT22;65881;52.438;16.744;2022-12-29T13:37:10;10.30;69.00
76936;DHT22;65881;52.438;16.744;2022-12-29T13:39:42;10.40;68.70
76936;DHT22;65881;52.438;16.744;2022-12-29T13:42:09;10.40;68.50
76936;DHT22;65881;52.438;16.744;2022-12-29T13:44:48;10.40;68.40
76936;DHT22;65881;52.438;16.744;2022-12-29T13:49:48;10.30;68.40
76936;DHT22;65881;52.438;16.744;2022-12-29T13:52:21;10.20;68.60
76936;DHT22;65881;52.438;16.744;2022-12-29T14:00:24;10.10;68.70
76936;DHT22;65881;52.438;16.744;2022-12-29T14:03:11;10.10;69.30
76936;DHT22;65881;52.438;16.744;2022-12-29T14:06:11;10.10;68.70
76936;DHT22;65881;52.438;16.744;2022-12-29T14:09:02;10.00;69.10
76936;DHT22;65881;52.438;16.744;2022-12-29T14:11:37;10.00;69.30
76936;DHT22;65881;52.438;16.744;2022-12-29T14:16:47;10.00;69.40
76936;DHT22;65881;52.438;16.744;2022-12-29T14:19:20;10.00;69.40
76936;DHT22;65881;52.438;16.744;2022-12-29T14:22:10;10.00;69.30
76936;DHT22;65881;52.438;16.744;2022-12-29T14:24:42;9.90;69.40
76936;DHT22;65881;52.438;16.744;2022-12-29T14:34:54;10.00;69.10
76936;DHT22;65881;52.438;16.744;2022-12-29T14:37:34;10.00;69.20
76936;DHT22;65881;52.438;16.744;2022-12-29T14:40:29;10.00;69.20
76936;DHT22;65881;52.438;16.744;2022-12-29T14:42:58;9.90;69.30
76936;DHT22;65881;52.438;16.744;2022-12-29T14:45:29;10.00;69.00
76936;DHT22;65881;52.438;16.744;2022-12-29T14:48:01;9.90;69.20
76936;DHT22;65881;52.438;16.744;2022-12-29T14:50:46;9.90;69.10
76936;DHT22;65881;52.438;16.744;2022-12-29T14:53:44;9.80;69.30
76936;DHT22;65881;52.438;16.744;2022-12-29T14:56:42;9.70;69.80
76936;DHT22;65881;52.438;16.744;2022-12-29T14:59:14;9.70;69.60
76936;DHT22;65881;52.438;16.744;2022-12-29T15:01:50;9.70;69.90
76936;DHT22;65881;52.438;16.744;2022-12-29T15:04:27;9.70;70.10
76936;DHT22;65881;52.438;16.744;2022-12-29T15:06:59;9.70;70.30
76936;DHT22;65881;52.438;16.744;2022-12-29T15:10:03;9.70;69.90
76936;DHT22;65881;52.438;16.744;2022-12-29T15:12:41;9.80;70.00
76936;DHT22;65881;52.438;16.744;2022-12-29T15:15:19;9.80;69.90
76936;DHT22;65881;52.438;16.744;2022-12-29T15:17:46;9.80;70.00
76936;DHT22;65881;52.438;16.744;2022-12-29T15:20:29;9.80;69.40
76936;DHT22;65881;52.438;16.744;2022-12-29T15:23:09;9.80;69.60
76936;DHT22;65881;52.438;16.744;2022-12-29T15:25:36;9.70;69.90
76936;DHT22;65881;52.438;16.744;2022-12-29T15:28:06;9.70;70.40
76936;DHT22;65881;52.438;16.744;2022-12-29T15:30:35;9.60;70.30
76936;DHT22;65881;52.438;16.744;2022-12-29T15:36:18;9.60;70.50
76936;DHT22;65881;52.438;16.744;2022-12-29T15:38:45;9.50;70.40
76936;DHT22;65881;52.438;16.744;2022-12-29T15:41:37;9.50;70.70
76936;DHT22;65881;52.438;16.744;2022-12-29T15:44:45;9.40;70.80
76936;DHT22;65881;52.438;16.744;2022-12-29T15:47:24;9.40;70.50
76936;DHT22;65881;52.438;16.744;2022-12-29T15:49:53;9.40;70.50
76936;DHT22;65881;52.438;16.744;2022-12-29T15:52:23;9.40;70.10
76936;DHT22;65881;52.438;16.744;2022-12-29T15:54:51;9.50;69.60
76936;DHT22;65881;52.438;16.744;2022-12-29T15:57:26;9.50;69.50
76936;DHT22;65881;52.438;16.744;2022-12-29T15:59:53;9.50;69.30
76936;DHT22;65881;52.438;16.744;2022-12-29T16:02:23;9.60;69.40
76936;DHT22;65881;52.438;16.744;2022-12-29T16:04:50;9.60;69.40
76936;DHT22;65881;52.438;16.744;2022-12-29T16:10:22;9.50;69.20
76936;DHT22;65881;52.438;16.744;2022-12-29T16:12:51;9.50;68.70
76936;DHT22;65881;52.438;16.744;2022-12-29T16:15:17;9.50;68.70
76936;DHT22;65881;52.438;16.744;2022-12-29T16:17:51;9.50;68.80
76936;DHT22;65881;52.438;16.744;2022-12-29T16:20:31;9.40;69.10
76936;DHT22;65881;52.438;16.744;2022-12-29T16:23:00;9.40;69.00
76936;DHT22;65881;52.438;16.744;2022-12-29T16:25:29;9.40;69.40
76936;DHT22;65881;52.438;16.744;2022-12-29T16:28:00;9.40;69.30
76936;DHT22;65881;52.438;16.744;2022-12-29T16:30:31;9.40;69.10
76936;DHT22;65881;52.438;16.744;2022-12-29T16:33:00;9.50;68.10
76936;DHT22;65881;52.438;16.744;2022-12-29T16:35:28;9.50;68.10
76936;DHT22;65881;52.438;16.744;2022-12-29T16:40:52;9.50;68.00
76936;DHT22;65881;52.438;16.744;2022-12-29T16:46:16;9.40;68.10
76936;DHT22;65881;52.438;16.744;2022-12-29T16:48:47;9.50;68.20
76936;DHT22;65881;52.438;16.744;2022-12-29T16:51:28;9.50;68.20
76936;DHT22;65881;52.438;16.744;2022-12-29T16:53:59;9.40;68.50
76936;DHT22;65881;52.438;16.744;2022-12-29T16:56:28;9.40;68.60
76936;DHT22;65881;52.438;16.744;2022-12-29T17:01:27;9.30;69.20
76936;DHT22;65881;52.438;16.744;2022-12-29T17:04:04;9.30;69.10
76936;DHT22;65881;52.438;16.744;2022-12-29T17:06:31;9.20;69.20
76936;DHT22;65881;52.438;16.744;2022-12-29T17:08:56;9.30;69.40
76936;DHT22;65881;52.438;16.744;2022-12-29T17:11:30;9.30;69.30
76936;DHT22;65881;52.438;16.744;2022-12-29T17:16:56;9.30;69.00
76936;DHT22;65881;52.438;16.744;2022-12-29T17:19:56;9.20;69.60
76936;DHT22;65881;52.438;16.744;2022-12-29T17:22:23;9.20;69.50
76936;DHT22;65881;52.438;16.744;2022-12-29T17:24:52;9.20;69.30
76936;DHT22;65881;52.438;16.744;2022-12-29T17:27:27;9.30;69.30
76936;DHT22;65881;52.438;16.744;2022-12-29T17:30:00;9.30;69.40
76936;DHT22;65881;52.438;16.744;2022-12-29T17:32:26;9.40;69.10
76936;DHT22;65881;52.438;16.744;2022-12-29T17:34:52;9.40;68.70
76936;DHT22;65881;52.438;16.744;2022-12-29T17:37:27;9.40;69.00
76936;DHT22;65881;52.438;16.744;2022-12-29T17:39:53;9.30;69.00
76936;DHT22;65881;52.438;16.744;2022-12-29T17:42:21;9.40;68.90
76936;DHT22;65881;52.438;16.744;2022-12-29T17:44:46;9.30;69.30
76936;DHT22;65881;52.438;16.744;2022-12-29T17:47:14;9.30;69.30
76936;DHT22;65881;52.438;16.744;2022-12-29T17:49:43;9.20;69.50
76936;DHT22;65881;52.438;16.744;2022-12-29T17:52:13;9.20;69.30
76936;DHT22;65881;52.438;16.744;2022-12-29T17:54:55;9.20;69.50
76936;DHT22;65881;52.438;16.744;2022-12-29T17:57:21;9.20;69.60
76936;DHT22;65881;52.438;16.744;2022-12-29T17:59:47;9.20;69.30
76936;DHT22;65881;52.438;16.744;2022-12-29T18:02:31;9.20;69.70
76936;DHT22;65881;52.438;16.744;2022-12-29T18:04:57;9.20;69.70
76936;DHT22;65881;52.438;16.744;2022-12-29T18:07:36;9.20;69.20
76936;DHT22;65881;52.438;16.744;2022-12-29T18:10:04;9.10;69.30
76936;DHT22;65881;52.438;16.744;2022-12-29T18:12:52;9.20;69.00
76936;DHT22;65881;52.438;16.744;2022-12-29T18:18:17;9.20;68.80
76936;DHT22;65881;52.438;16.744;2022-12-29T18:20:44;9.20;68.90
76936;DHT22;65881;52.438;16.744;2022-12-29T18:23:18;9.20;68.80
76936;DHT22;65881;52.438;16.744;2022-12-29T18:28:22;9.20;69.00